Time;durP1;ratioP1;P1;durP2;ratioP2;P2;SDS_P1;SDS_P2;PMS_P1;PMS_P2;Temp;Humidity;BMP_temperature;BMP_pressure;BME280_temperature;BME280_humidity;BME280_pressure;Samples;Min_cycle;Max_cycle;Signal;HPM_P1;HPM_P2
2021/09/26 00:00:10;;;;;;;;;16.75;16.50;;;;;22.21;54.06;100874.38;5079264;27;46642;-56
2021/09/26 00:02:36;;;;;;;;;18.25;14.75;;;;;22.19;54.02;100857.78;5078965;27;45319;-56
2021/09/26 00:05:01;;;;;;;;;18.50;17.00;;;;;22.19;53.87;100857.78;5079226;27;45448;-58
2021/09/26 00:07:26;;;;;;;;;17.75;16.75;;;;;22.19;54.22;100858.63;5079312;27;45315;-59
2021/09/26 00:09:53;;;;;;;;;17.00;16.25;;;;;22.17;54.14;100857.00;5078899;27;47480;-58
2021/09/26 00:12:18;;;;;;;;;15.25;13.25;;;;;22.19;54.12;100863.91;5079045;27;45311;-58
2021/09/26 00:14:45;;;;;;;;;18.50;16.50;;;;;22.20;54.05;100864.75;5094998;27;45343;-55
2021/09/26 00:17:10;;;;;;;;;16.25;15.00;;;;;22.19;53.94;100871.84;5079417;28;45239;-55
2021/09/26 00:19:36;;;;;;;;;14.75;13.75;;;;;22.20;53.89;100876.19;5078703;28;46469;-56
2021/09/26 00:22:02;;;;;;;;;17.00;17.00;;;;;22.20;54.16;100873.53;5078663;27;45451;-56
2021/09/26 00:24:28;;;;;;;;;18.25;17.25;;;;;22.19;53.88;100869.19;5078863;27;45284;-57
2021/09/26 00:26:53;;;;;;;;;16.25;16.00;;;;;22.19;53.90;100860.41;5079059;27;45339;-58
2021/09/26 00:29:18;;;;;;;;;16.00;13.75;;;;;22.17;53.90;100868.44;5078743;27;45357;-57
2021/09/26 00:31:44;;;;;;;;;19.00;13.75;;;;;22.18;54.28;100869.28;5078845;27;45173;-54
2021/09/26 00:34:09;;;;;;;;;13.00;12.50;;;;;22.19;53.82;100873.59;5078752;28;45166;-58
2021/09/26 00:36:34;;;;;;;;;19.00;17.25;;;;;22.18;54.29;100882.47;5078882;27;45566;-58
2021/09/26 00:39:00;;;;;;;;;19.00;15.25;;;;;22.19;54.14;100892.09;5078492;27;46331;-58
2021/09/26 00:41:25;;;;;;;;;12.25;12.25;;;;;22.18;53.84;100900.94;5078537;27;45702;-57
2021/09/26 00:43:50;;;;;;;;;16.75;16.75;;;;;22.18;54.09;100900.94;5078522;27;45279;-57
2021/09/26 00:46:16;;;;;;;;;15.25;15.25;;;;;22.18;54.08;100887.75;5078758;27;45292;-58
2021/09/26 00:48:41;;;;;;;;;13.75;13.00;;;;;22.18;53.95;100896.53;5078731;27;45377;-57
2021/09/26 00:51:11;;;;;;;;;15.25;14.50;;;;;22.18;54.17;100895.66;5078479;27;45320;-55
2021/09/26 00:53:41;;;;;;;;;15.25;12.75;;;;;22.18;54.28;100890.38;5078406;27;45391;-57
2021/09/26 00:56:07;;;;;;;;;19.75;17.00;;;;;22.16;53.97;100893.13;5078627;27;45320;-58
2021/09/26 00:58:33;;;;;;;;;12.00;12.00;;;;;22.17;53.89;100883.41;5078102;28;45478;-58
2021/09/26 01:00:58;;;;;;;;;17.75;16.25;;;;;22.14;53.96;100873.91;5076724;27;45396;-56
2021/09/26 01:03:24;;;;;;;;;16.00;13.75;;;;;22.17;54.00;100886.91;5078227;27;45444;-56
2021/09/26 01:05:58;;;;;;;;;15.00;14.00;;;;;22.17;54.05;100883.41;5094123;27;45595;-56
2021/09/26 01:08:41;;;;;;;;;15.50;13.75;;;;;22.16;54.23;100882.56;5078086;28;46903;-57
2021/09/26 01:11:29;;;;;;;;;16.00;12.75;;;;;22.17;53.96;100893.97;5078063;27;45923;-54
2021/09/26 01:14:24;;;;;;;;;16.00;16.00;;;;;22.16;54.02;100893.13;5078168;27;45298;-55
2021/09/26 01:17:14;;;;;;;;;15.00;13.00;;;;;22.15;54.21;100886.16;5094008;27;45488;-56
2021/09/26 01:20:00;;;;;;;;;12.75;12.75;;;;;22.16;54.10;100893.13;5077929;27;46729;-56
2021/09/26 01:22:38;;;;;;;;;15.50;13.75;;;;;22.16;54.08;100898.41;5077705;27;45801;-56
2021/09/26 01:25:48;;;;;;;;;17.50;16.00;;;;;22.16;54.10;100901.06;5078016;27;45409;-54
2021/09/26 01:28:13;;;;;;;;;17.25;17.25;;;;;22.15;54.04;100896.72;5074898;28;45554;-55
2021/09/26 01:30:50;;;;;;;;;15.00;14.00;;;;;22.15;53.97;100906.44;5077759;28;45189;-56
2021/09/26 01:33:52;;;;;;;;;16.50;14.50;;;;;22.13;54.37;100913.59;5077830;27;45836;-57
2021/09/26 01:36:26;;;;;;;;;14.75;14.25;;;;;22.14;54.29;100929.31;5078102;28;45302;-56
2021/09/26 01:39:00;;;;;;;;;14.75;13.00;;;;;22.13;54.40;100940.81;5077823;27;45374;-56
2021/09/26 01:41:50;;;;;;;;;13.75;12.50;;;;;22.14;54.05;100926.69;5077355;27;45528;-56
2021/09/26 01:44:28;;;;;;;;;14.00;14.00;;;;;22.12;53.91;100931.22;5093597;27;46044;-57
2021/09/26 01:46:56;;;;;;;;;13.75;13.00;;;;;22.12;54.38;100917.19;5077720;27;45589;-55
2021/09/26 01:49:31;;;;;;;;;13.00;12.00;;;;;22.13;54.44;100916.22;5077799;27;45603;-55
2021/09/26 01:52:00;;;;;;;;;14.25;12.50;;;;;22.12;54.01;100907.44;5077447;27;46609;-54
2021/09/26 01:54:26;;;;;;;;;14.75;12.50;;;;;22.12;54.19;100902.16;5077459;27;45234;-58
2021/09/26 01:56:52;;;;;;;;;14.00;13.75;;;;;22.12;54.18;100907.44;5077423;27;45384;-55
2021/09/26 01:59:21;;;;;;;;;14.25;13.25;;;;;22.11;54.34;100911.03;5077788;27;45574;-59
2021/09/26 02:01:47;;;;;;;;;13.25;13.25;;;;;22.10;54.34;100909.38;5077584;27;46643;-58
2021/09/26 02:04:15;;;;;;;;;14.50;13.00;;;;;22.11;54.27;100903.13;5077296;28;45934;-57
2021/09/26 02:06:42;;;;;;;;;14.25;13.75;;;;;22.09;54.40;100903.22;5077368;27;45260;-57
2021/09/26 02:09:10;;;;;;;;;11.75;11.25;;;;;22.09;54.02;100918.22;5077600;27;45266;-57
2021/09/26 02:11:38;;;;;;;;;11.25;11.25;;;;;22.09;54.00;100907.66;5076654;27;45416;-58
2021/09/26 02:14:05;;;;;;;;;15.00;13.50;;;;;22.08;54.25;100911.25;5077205;28;45401;-58
2021/09/26 02:16:34;;;;;;;;;12.50;11.75;;;;;22.05;54.41;100899.06;5077123;27;45239;-58
2021/09/26 02:19:02;;;;;;;;;13.25;13.25;;;;;22.09;54.56;100905.03;5077400;28;45765;-57
2021/09/26 02:21:29;;;;;;;;;13.75;13.75;;;;;22.07;54.32;100912.19;5076997;27;46366;-56
2021/09/26 02:23:55;;;;;;;;;15.25;14.00;;;;;22.09;54.20;100905.03;5077008;27;45507;-56
2021/09/26 02:26:21;;;;;;;;;14.25;11.75;;;;;22.07;54.51;100920.94;5077490;27;45299;-59
2021/09/26 02:28:46;;;;;;;;;12.00;12.00;;;;;22.08;54.33;100906.78;5077609;27;45353;-58
2021/09/26 02:31:13;;;;;;;;;15.25;12.75;;;;;22.09;54.26;100907.66;5076723;27;45625;-58
2021/09/26 02:33:40;;;;;;;;;12.00;12.00;;;;;22.08;54.31;100901.50;5092476;27;45563;-57
2021/09/26 02:36:07;;;;;;;;;12.00;12.00;;;;;22.10;54.16;100906.72;5092596;27;45260;-58
2021/09/26 02:38:34;;;;;;;;;11.00;11.00;;;;;22.10;54.23;100904.09;5076967;27;45564;-58
2021/09/26 02:41:29;;;;;;;;;11.00;11.00;;;;;22.08;54.30;100895.41;5076572;27;46718;-56
2021/09/26 02:44:27;;;;;;;;;12.25;12.00;;;;;22.06;54.38;100889.38;5058470;27;45400;-58
2021/09/26 02:47:08;;;;;;;;;12.00;12.00;;;;;22.06;54.22;100887.56;5076624;27;45189;-57
2021/09/26 02:49:34;;;;;;;;;12.25;12.25;;;;;22.06;54.36;100886.72;5076930;27;45260;-58
2021/09/26 02:51:59;;;;;;;;;13.75;12.00;;;;;22.06;54.45;100886.72;5076347;27;46837;-58
2021/09/26 02:54:26;;;;;;;;;12.50;12.25;;;;;22.04;54.33;100881.56;5076500;27;45370;-59
2021/09/26 02:56:52;;;;;;;;;10.00;10.00;;;;;22.04;54.45;100888.59;5076959;27;45272;-56
2021/09/26 02:59:21;;;;;;;;;12.25;11.00;;;;;22.06;54.43;100887.56;5076932;27;45597;-58
2021/09/26 03:01:51;;;;;;;;;8.00;8.00;;;;;22.05;54.09;100890.31;5076372;27;45338;-58
2021/09/26 03:04:17;;;;;;;;;13.50;12.00;;;;;22.06;54.24;100886.72;5076363;27;45757;-59
2021/09/26 03:06:42;;;;;;;;;12.00;11.00;;;;;22.07;54.49;100883.16;5075106;28;45339;-59
2021/09/26 03:09:07;;;;;;;;;10.00;9.25;;;;;22.05;54.17;100877.09;5076673;27;45626;-58
2021/09/26 03:11:33;;;;;;;;;11.25;11.25;;;;;22.05;54.18;100867.38;5076224;27;45284;-59
2021/09/26 03:13:58;;;;;;;;;11.00;10.50;;;;;22.05;54.05;100872.66;5076457;27;45560;-59
2021/09/26 03:16:23;;;;;;;;;11.50;11.25;;;;;22.06;54.31;100865.59;5076309;27;45355;-56
2021/09/26 03:18:49;;;;;;;;;14.25;12.75;;;;;22.04;54.31;100862.22;5075418;28;45489;-56
2021/09/26 03:21:14;;;;;;;;;12.50;12.50;;;;;22.06;54.24;100861.16;5076078;27;45615;-57
2021/09/26 03:23:40;;;;;;;;;13.50;10.00;;;;;22.06;54.30;100855.06;5077116;27;45409;-55
2021/09/26 03:26:05;;;;;;;;;11.75;10.75;;;;;22.06;54.30;100853.25;5079817;27;45429;-57
2021/09/26 03:28:31;;;;;;;;;15.00;13.25;;;;;22.06;54.33;100845.31;5079872;27;45272;-56
2021/09/26 03:30:56;;;;;;;;;11.00;11.00;;;;;22.05;54.22;100842.78;5079490;27;45727;-56
2021/09/26 03:33:21;;;;;;;;;12.25;11.00;;;;;22.06;54.26;100836.56;5079978;27;45326;-57
2021/09/26 03:35:47;;;;;;;;;11.00;11.00;;;;;22.06;54.17;100847.13;5095048;27;45323;-58
2021/09/26 03:38:12;;;;;;;;;12.50;11.75;;;;;22.04;54.20;100854.28;5079754;27;45245;-55
2021/09/26 03:40:38;;;;;;;;;12.75;11.75;;;;;22.04;54.31;100857.78;5079431;27;45324;-55
2021/09/26 03:43:03;;;;;;;;;10.75;10.00;;;;;22.04;54.26;100855.16;5079362;27;45465;-56
2021/09/26 03:45:29;;;;;;;;;12.25;11.00;;;;;22.05;54.26;100864.75;5079576;27;45578;-55
2021/09/26 03:47:54;;;;;;;;;13.50;11.50;;;;;22.04;54.65;100863.06;5079646;27;45332;-53
2021/09/26 03:50:20;;;;;;;;;8.75;8.75;;;;;22.04;54.27;100851.66;5079492;27;45231;-54
2021/09/26 03:52:45;;;;;;;;;13.00;13.00;;;;;22.04;54.30;100854.28;5079194;28;45185;-58
2021/09/26 03:55:14;;;;;;;;;12.00;11.00;;;;;22.03;54.32;100861.38;5079405;27;45466;-58
2021/09/26 03:57:41;;;;;;;;;17.00;14.25;;;;;22.03;54.17;100849.94;5079460;27;45386;-56
2021/09/26 04:00:09;;;;;;;;;14.00;11.00;;;;;22.01;54.63;100838.63;5078759;27;46330;-57
2021/09/26 04:02:34;;;;;;;;;13.50;13.00;;;;;22.02;54.61;100846.47;5079119;27;45770;-56
2021/09/26 04:05:00;;;;;;;;;11.75;11.50;;;;;22.01;54.39;100841.28;5095107;27;45286;-57
2021/09/26 04:07:25;;;;;;;;;11.25;11.25;;;;;22.01;54.40;100841.28;5079313;27;45310;-53
2021/09/26 04:09:50;;;;;;;;;10.00;10.00;;;;;22.01;54.45;100836.00;5079200;27;45340;-55
2021/09/26 04:12:16;;;;;;;;;11.25;10.50;;;;;22.00;54.57;100829.03;5078918;27;45247;-58
2021/09/26 04:14:41;;;;;;;;;12.75;11.25;;;;;22.01;54.45;100841.28;5079125;27;45359;-57
2021/09/26 04:17:07;;;;;;;;;13.75;12.75;;;;;22.01;54.27;100836.00;5079310;28;45422;-56
2021/09/26 04:19:33;;;;;;;;;10.00;10.00;;;;;22.01;54.26;100841.28;5078730;27;45213;-55
2021/09/26 04:21:59;;;;;;;;;12.75;11.75;;;;;22.02;54.35;100837.69;5078923;27;46006;-55
2021/09/26 04:24:25;;;;;;;;;13.75;13.75;;;;;22.00;54.43;100831.66;5094913;27;45514;-56
2021/09/26 04:26:50;;;;;;;;;12.00;12.00;;;;;22.00;54.45;100834.28;5079141;27;45617;-57
2021/09/26 04:29:16;;;;;;;;;10.50;10.25;;;;;21.99;54.37;100825.56;5078717;27;45342;-58
2021/09/26 04:31:41;;;;;;;;;12.00;11.25;;;;;22.00;54.30;100834.28;5078605;27;45443;-57
2021/09/26 04:34:07;;;;;;;;;14.25;12.00;;;;;21.99;54.48;100830.00;5078715;27;45375;-58
2021/09/26 04:36:32;;;;;;;;;12.00;11.00;;;;;21.97;54.48;100819.50;5078878;27;45390;-57
2021/09/26 04:38:58;;;;;;;;;12.25;10.00;;;;;21.97;54.55;100823.97;5078497;27;45403;-56
2021/09/26 04:41:23;;;;;;;;;13.50;11.50;;;;;21.97;54.31;100819.50;5078980;27;45509;-56
2021/09/26 04:43:48;;;;;;;;;10.00;10.00;;;;;21.95;54.37;100810.84;5078798;27;45517;-57
2021/09/26 04:46:14;;;;;;;;;13.25;11.25;;;;;21.97;54.59;100823.97;5078858;27;45534;-55
2021/09/26 04:48:39;;;;;;;;;12.25;11.75;;;;;21.95;54.39;100812.63;5078533;27;45613;-54
2021/09/26 04:51:04;;;;;;;;;14.25;11.75;;;;;21.95;54.38;100820.56;5078417;27;45242;-55
2021/09/26 04:53:30;;;;;;;;;11.00;11.00;;;;;21.96;54.73;100822.25;5078690;27;45224;-54
2021/09/26 04:55:55;;;;;;;;;13.00;12.50;;;;;21.95;54.43;100825.84;5079040;27;45588;-55
2021/09/26 04:58:21;;;;;;;;;12.50;12.25;;;;;21.95;54.42;100828.47;5078203;27;45401;-54
2021/09/26 05:00:46;;;;;;;;;14.25;13.00;;;;;21.93;54.43;100824.13;5078008;27;45308;-55
2021/09/26 05:03:12;;;;;;;;;13.00;11.50;;;;;21.92;54.64;100819.78;5078205;27;45219;-58
2021/09/26 05:05:38;;;;;;;;;10.75;10.75;;;;;21.92;54.48;100833.00;5078479;27;45349;-56
2021/09/26 05:08:03;;;;;;;;;13.00;12.25;;;;;21.90;54.80;100832.22;5078113;27;45434;-55
2021/09/26 05:10:29;;;;;;;;;14.50;11.75;;;;;21.91;54.68;100841.00;5077992;28;45424;-55
2021/09/26 05:12:54;;;;;;;;;11.25;11.00;;;;;21.91;54.87;100846.28;5078441;27;45507;-58
2021/09/26 05:15:20;;;;;;;;;12.75;11.75;;;;;21.91;54.62;100848.94;5078313;27;45608;-57
2021/09/26 05:17:45;;;;;;;;;11.25;11.25;;;;;21.92;54.58;100853.25;5077900;28;45676;-56
2021/09/26 05:20:11;;;;;;;;;13.50;13.50;;;;;21.92;54.69;100854.09;5077882;27;45345;-55
2021/09/26 05:22:38;;;;;;;;;13.25;12.50;;;;;21.93;54.66;100857.59;5078162;28;45329;-53
2021/09/26 05:25:04;;;;;;;;;14.75;13.75;;;;;21.93;54.72;100866.34;5078081;27;45434;-55
2021/09/26 05:27:29;;;;;;;;;13.25;10.25;;;;;21.93;54.66;100871.63;5077710;27;46235;-56
2021/09/26 05:29:55;;;;;;;;;13.00;13.00;;;;;21.95;54.61;100878.63;5078242;27;45439;-56
2021/09/26 05:32:20;;;;;;;;;11.25;11.25;;;;;21.96;54.65;100896.16;5078111;28;45389;-55
2021/09/26 05:34:45;;;;;;;;;15.00;12.25;;;;;21.96;54.64;100893.50;5078148;28;45221;-57
2021/09/26 05:37:12;;;;;;;;;15.00;13.75;;;;;21.97;54.61;100900.47;5077537;27;46417;-54
2021/09/26 05:39:38;;;;;;;;;15.75;13.00;;;;;21.96;54.56;100896.97;5077713;28;45260;-58
2021/09/26 05:42:06;;;;;;;;;13.00;12.00;;;;;21.96;54.49;100894.34;5077910;27;45504;-55
2021/09/26 05:44:33;;;;;;;;;12.25;12.25;;;;;21.95;54.83;100891.81;5077932;27;45552;-56
2021/09/26 05:46:58;;;;;;;;;17.50;16.00;;;;;21.93;54.65;100892.75;5077098;27;46222;-53
2021/09/26 05:49:24;;;;;;;;;15.25;14.00;;;;;21.95;54.58;100899.72;5077472;28;45239;-55
2021/09/26 05:51:49;;;;;;;;;13.25;13.25;;;;;21.93;54.78;100895.38;5077597;27;45457;-54
2021/09/26 05:54:14;;;;;;;;;12.75;12.75;;;;;21.92;54.71;100901.59;5077749;27;45236;-54
2021/09/26 05:56:40;;;;;;;;;11.00;10.50;;;;;21.93;54.72;100905.94;5077232;27;46482;-57
2021/09/26 05:59:05;;;;;;;;;12.25;11.50;;;;;21.92;54.69;100912.16;5077456;27;45289;-55
2021/09/26 06:01:30;;;;;;;;;12.50;11.75;;;;;21.92;54.80;100917.44;5076033;28;45299;-54
2021/09/26 06:03:56;;;;;;;;;12.75;12.00;;;;;21.93;54.67;100926.22;5077819;27;45606;-55
2021/09/26 06:06:21;;;;;;;;;10.75;10.75;;;;;21.95;54.86;100939.31;5077144;27;46576;-56
2021/09/26 06:08:47;;;;;;;;;13.00;12.50;;;;;21.93;54.64;100942.88;5077148;27;45864;-53
2021/09/26 06:11:12;;;;;;;;;19.00;13.25;;;;;21.95;54.64;100936.66;5092944;27;45568;-54
2021/09/26 06:13:37;;;;;;;;;14.50;13.50;;;;;21.95;54.76;100936.66;5077264;28;45552;-56
2021/09/26 06:16:03;;;;;;;;;13.75;11.00;;;;;21.95;54.90;100923.47;5076951;27;45697;-56
2021/09/26 06:18:29;;;;;;;;;12.00;12.00;;;;;21.95;54.60;100934.03;5077549;27;45472;-54
2021/09/26 06:20:55;;;;;;;;;12.50;12.25;;;;;21.95;54.70;100932.22;5077206;27;45538;-58
2021/09/26 06:23:20;;;;;;;;;13.25;13.25;;;;;21.92;54.60;100938.53;5077169;27;45523;-57
2021/09/26 06:25:46;;;;;;;;;15.00;14.00;;;;;21.95;54.69;100942.78;5076708;27;46558;-56
2021/09/26 06:28:11;;;;;;;;;14.50;13.00;;;;;21.96;54.69;100939.19;5076856;28;45499;-56
2021/09/26 06:30:38;;;;;;;;;15.75;13.00;;;;;21.96;54.68;100941.84;5076840;27;45339;-57
2021/09/26 06:33:04;;;;;;;;;14.50;13.25;;;;;21.98;54.70;100947.03;5077081;27;45189;-56
2021/09/26 06:35:30;;;;;;;;;12.00;12.00;;;;;21.97;54.92;100940.06;5076911;27;46572;-56
2021/09/26 06:37:56;;;;;;;;;12.00;11.75;;;;;21.98;54.76;100947.03;5076736;27;45305;-53
2021/09/26 06:40:21;;;;;;;;;12.00;12.00;;;;;21.98;54.60;100952.31;5076764;27;45379;-55
2021/09/26 06:42:47;;;;;;;;;13.00;13.00;;;;;21.99;54.54;100954.03;5076935;27;45324;-56
2021/09/26 06:45:13;;;;;;;;;13.75;13.75;;;;;21.97;54.85;100954.09;5076617;27;45330;-57
2021/09/26 06:47:39;;;;;;;;;12.50;11.50;;;;;21.99;54.68;100954.03;5076683;27;45390;-56
2021/09/26 06:50:06;;;;;;;;;11.25;11.25;;;;;21.98;54.57;100950.53;5076762;27;45334;-56
2021/09/26 06:52:31;;;;;;;;;11.75;11.75;;;;;22.00;54.80;100958.34;5077119;28;45327;-57
2021/09/26 06:54:56;;;;;;;;;14.50;14.50;;;;;21.99;54.69;100959.31;5076280;27;46352;-56
2021/09/26 06:57:22;;;;;;;;;12.25;12.25;;;;;22.00;54.52;100968.88;5076556;27;45436;-57
2021/09/26 06:59:47;;;;;;;;;12.25;11.00;;;;;22.01;54.63;100970.59;5079278;27;45351;-56
2021/09/26 07:02:17;;;;;;;;;12.00;12.00;;;;;22.02;54.58;100964.38;5080366;27;45252;-57
2021/09/26 07:04:43;;;;;;;;;13.25;11.50;;;;;22.01;54.69;100958.25;5079711;27;46436;-56
2021/09/26 07:07:08;;;;;;;;;12.00;12.00;;;;;22.02;54.54;100967.00;5080015;27;45315;-56
2021/09/26 07:09:33;;;;;;;;;14.50;11.50;;;;;22.00;54.41;100968.88;5080311;27;46632;-56
2021/09/26 07:11:58;;;;;;;;;16.00;13.00;;;;;22.02;54.74;100974.94;5080463;27;45655;-53
2021/09/26 07:14:24;;;;;;;;;11.50;11.00;;;;;22.03;54.48;100982.78;5079891;27;45434;-56
2021/09/26 07:16:49;;;;;;;;;14.00;12.25;;;;;22.03;54.63;100989.84;5079855;28;45433;-55
2021/09/26 07:19:15;;;;;;;;;13.00;11.00;;;;;22.04;54.65;100983.63;5080093;27;45512;-55
2021/09/26 07:21:41;;;;;;;;;14.50;13.50;;;;;22.03;54.77;100981.91;5080092;27;45252;-56
2021/09/26 07:24:06;;;;;;;;;13.25;13.00;;;;;22.03;54.70;100977.50;5079385;27;46700;-56
2021/09/26 07:26:32;;;;;;;;;14.50;11.00;;;;;22.04;54.67;100978.34;5080087;27;45329;-57
2021/09/26 07:28:57;;;;;;;;;14.75;12.25;;;;;22.04;54.76;100979.19;5079909;27;45418;-55
2021/09/26 07:31:22;;;;;;;;;12.00;12.00;;;;;22.05;54.71;100980.03;5080009;27;45595;-57
2021/09/26 07:33:48;;;;;;;;;11.25;10.25;;;;;22.05;54.76;100990.59;5079608;27;45279;-54
2021/09/26 07:36:13;;;;;;;;;12.75;12.00;;;;;22.04;54.58;100989.75;5095382;27;45401;-55
2021/09/26 07:38:38;;;;;;;;;14.50;12.25;;;;;22.08;54.80;100995.69;5079790;28;45362;-52
2021/09/26 07:41:04;;;;;;;;;14.25;13.25;;;;;22.08;54.83;101000.97;5080184;27;45291;-56
2021/09/26 07:43:30;;;;;;;;;14.25;11.75;;;;;22.08;54.56;101009.72;5079369;27;45508;-56
2021/09/26 07:45:56;;;;;;;;;10.00;9.00;;;;;22.08;54.72;101011.53;5079470;27;45189;-54
2021/09/26 07:48:21;;;;;;;;;13.25;13.25;;;;;22.06;54.76;101018.69;5079569;27;45227;-55
2021/09/26 07:50:47;;;;;;;;;11.75;10.50;;;;;22.07;54.81;101020.41;5079564;27;45275;-56
2021/09/26 07:53:12;;;;;;;;;10.50;10.50;;;;;22.09;54.84;101026.44;5079137;28;45473;-56
2021/09/26 07:55:37;;;;;;;;;12.25;12.25;;;;;22.08;54.84;101020.28;5079405;27;45321;-57
2021/09/26 07:58:03;;;;;;;;;12.00;12.00;;;;;22.08;54.62;101024.72;5079744;27;45243;-57
2021/09/26 08:00:28;;;;;;;;;11.75;10.25;;;;;22.05;54.64;101025.75;5079414;27;45493;-56
2021/09/26 08:02:54;;;;;;;;;14.00;13.25;;;;;22.05;54.82;101024.91;5094954;27;47009;-54
2021/09/26 08:05:19;;;;;;;;;12.00;11.00;;;;;22.09;54.86;101034.34;5079066;27;45592;-56
2021/09/26 08:07:44;;;;;;;;;11.50;10.50;;;;;22.08;54.67;101038.78;5079364;27;45320;-55
2021/09/26 08:10:11;;;;;;;;;11.50;11.50;;;;;22.08;54.74;101037.94;5078795;27;45624;-54
2021/09/26 08:12:37;;;;;;;;;12.00;11.75;;;;;22.08;54.95;101041.41;5079262;28;45350;-57
2021/09/26 08:15:03;;;;;;;;;13.00;12.00;;;;;22.10;54.87;101041.34;5095096;27;45458;-54
2021/09/26 08:17:28;;;;;;;;;16.50;14.00;;;;;22.09;54.91;101034.34;5079081;27;45338;-56
2021/09/26 08:19:53;;;;;;;;;15.00;13.00;;;;;22.11;55.02;101036.91;5079155;27;45475;-56
2021/09/26 08:22:19;;;;;;;;;16.50;14.75;;;;;22.08;54.89;101030.84;5078575;27;46294;-56
2021/09/26 08:24:44;;;;;;;;;11.75;11.75;;;;;22.07;55.03;101034.44;5078610;27;45362;-56
2021/09/26 08:27:10;;;;;;;;;13.00;12.75;;;;;22.10;55.32;101033.41;5078917;28;45172;-56
2021/09/26 08:29:36;;;;;;;;;14.75;14.75;;;;;22.09;54.93;101034.34;5079225;27;45325;-56
2021/09/26 08:32:02;;;;;;;;;12.75;12.00;;;;;22.08;55.01;101045.84;5078611;27;45261;-56
2021/09/26 08:34:27;;;;;;;;;15.50;12.25;;;;;22.08;55.20;101045.84;5078588;27;45309;-56
2021/09/26 08:36:53;;;;;;;;;13.75;13.25;;;;;22.07;54.98;101047.63;5078573;27;45611;-56
2021/09/26 08:39:19;;;;;;;;;15.75;12.75;;;;;22.10;55.14;101049.25;5078856;27;45546;-56
2021/09/26 08:41:44;;;;;;;;;11.75;10.50;;;;;22.09;54.96;101052.84;5078298;27;45714;-56
2021/09/26 08:44:10;;;;;;;;;11.00;11.00;;;;;22.09;55.11;101052.84;5093908;27;45435;-56
2021/09/26 08:46:36;;;;;;;;;11.00;11.00;;;;;22.10;55.02;101046.63;5078779;27;45335;-56
2021/09/26 08:49:03;;;;;;;;;16.00;13.25;;;;;22.11;55.13;101061.50;5078632;27;45637;-56
2021/09/26 08:51:28;;;;;;;;;11.25;11.25;;;;;22.12;54.58;101049.16;5078062;27;45461;-55
2021/09/26 08:53:54;;;;;;;;;11.25;11.25;;;;;22.09;55.16;101050.19;5078330;27;45269;-56
2021/09/26 08:56:20;;;;;;;;;13.25;12.25;;;;;22.11;55.08;101043.00;5078252;27;45422;-56
2021/09/26 08:58:46;;;;;;;;;15.25;14.00;;;;;22.12;54.99;101057.91;5078386;27;45405;-56
2021/09/26 09:01:12;;;;;;;;;14.00;14.00;;;;;22.13;54.98;101048.22;5077748;28;45221;-55
2021/09/26 09:03:37;;;;;;;;;16.25;12.75;;;;;22.16;55.03;101045.41;5078387;27;45245;-56
2021/09/26 09:06:03;;;;;;;;;13.25;13.00;;;;;22.16;54.98;101048.06;5078096;27;45623;-56
2021/09/26 09:08:28;;;;;;;;;11.75;11.75;;;;;22.18;55.10;101054.94;5078243;27;45195;-53
2021/09/26 09:11:00;;;;;;;;;13.75;11.50;;;;;22.20;54.94;101042.50;5077965;27;46823;-55
2021/09/26 09:13:33;;;;;;;;;11.50;9.75;;;;;22.21;55.08;101044.16;5078030;27;45902;-54
2021/09/26 09:15:59;;;;;;;;;14.75;14.50;;;;;22.22;54.97;101043.22;5078195;27;45400;-56
2021/09/26 09:18:44;;;;;;;;;14.00;13.75;;;;;22.24;55.02;101049.28;5078284;27;45357;-56
2021/09/26 09:21:22;;;;;;;;;10.00;10.00;;;;;22.27;54.94;101048.22;5076866;27;46083;-55
2021/09/26 09:23:50;;;;;;;;;13.25;11.00;;;;;22.28;55.10;101039.38;5077645;27;45330;-56
2021/09/26 09:26:29;;;;;;;;;14.00;13.50;;;;;22.30;55.13;101040.13;5078074;28;45346;-55
2021/09/26 09:28:56;;;;;;;;;15.75;12.75;;;;;22.31;54.87;101044.47;5078039;27;45465;-54
2021/09/26 09:31:21;;;;;;;;;16.25;13.00;;;;;22.31;55.04;101046.28;5077780;27;46312;-55
2021/09/26 09:33:46;;;;;;;;;13.25;11.00;;;;;22.34;54.80;101041.66;5077843;27;45192;-55
2021/09/26 09:36:21;;;;;;;;;14.50;13.50;;;;;22.36;55.02;101049.47;5077778;27;45328;-54
2021/09/26 09:38:49;;;;;;;;;11.50;9.75;;;;;22.36;54.84;101046.84;5078109;27;45493;-56
2021/09/26 09:41:37;;;;;;;;;10.25;10.25;;;;;22.36;54.90;101052.13;5093152;27;47093;-55
2021/09/26 09:44:05;;;;;;;;;12.50;12.50;;;;;22.36;55.21;101057.41;5077482;27;45788;-55
2021/09/26 09:46:33;;;;;;;;;8.25;8.25;;;;;22.37;54.75;101053.81;5077589;27;45335;-53
2021/09/26 09:49:10;;;;;;;;;15.25;14.75;;;;;22.36;54.98;101046.84;5077844;27;45219;-56
2021/09/26 09:51:46;;;;;;;;;14.00;11.50;;;;;22.36;55.12;101050.34;5076010;28;45718;-56
2021/09/26 09:54:12;;;;;;;;;12.25;11.75;;;;;22.35;55.02;101046.00;5077637;27;45338;-54
2021/09/26 09:56:44;;;;;;;;;14.25;12.75;;;;;22.34;55.01;101054.00;5077641;27;45771;-56
2021/09/26 09:59:11;;;;;;;;;14.00;11.50;;;;;22.36;55.09;101062.69;5077795;27;45453;-55
2021/09/26 10:01:39;;;;;;;;;8.00;8.00;;;;;22.34;55.07;101059.28;5077086;27;46473;-55
2021/09/26 10:04:14;;;;;;;;;14.50;12.75;;;;;22.33;55.57;101050.53;5077019;27;45366;-56
2021/09/26 10:06:46;;;;;;;;;12.50;10.25;;;;;22.32;54.99;101045.34;5077343;27;45388;-56
2021/09/26 10:09:24;;;;;;;;;13.50;13.00;;;;;22.32;54.99;101059.38;5077767;27;45371;-55
2021/09/26 10:11:56;;;;;;;;;14.75;12.00;;;;;22.32;55.32;101055.91;5075489;28;46977;-56
2021/09/26 10:14:25;;;;;;;;;15.75;13.00;;;;;22.32;55.41;101055.91;5077002;27;45375;-55
2021/09/26 10:16:52;;;;;;;;;15.25;14.00;;;;;22.28;55.25;101054.38;5077088;27;45285;-55
2021/09/26 10:19:22;;;;;;;;;15.00;12.75;;;;;22.30;55.21;101061.25;5077179;27;45454;-54
2021/09/26 10:21:54;;;;;;;;;11.50;11.25;;;;;22.29;55.04;101061.38;5076626;27;46210;-55
2021/09/26 10:24:21;;;;;;;;;13.25;11.00;;;;;22.31;54.85;101054.22;5076917;27;45324;-55
2021/09/26 10:26:48;;;;;;;;;13.50;11.50;;;;;22.30;55.20;101058.63;5077158;27;45417;-57
2021/09/26 10:29:17;;;;;;;;;12.50;12.00;;;;;22.31;55.39;101054.22;5077559;27;45534;-55
2021/09/26 10:31:45;;;;;;;;;11.00;11.00;;;;;22.29;54.99;101053.44;5076937;27;46808;-57
2021/09/26 10:34:10;;;;;;;;;12.50;12.50;;;;;22.28;55.06;101060.50;5076894;27;45764;-55
2021/09/26 10:36:36;;;;;;;;;14.50;12.25;;;;;22.29;54.99;101058.72;5076882;28;45260;-56
2021/09/26 10:39:05;;;;;;;;;14.00;14.00;;;;;22.30;55.12;101057.78;5076975;27;45268;-57
2021/09/26 10:41:31;;;;;;;;;11.25;11.25;;;;;22.28;55.28;101052.56;5076503;27;45311;-56
2021/09/26 10:44:17;;;;;;;;;10.25;10.25;;;;;22.28;55.33;101049.09;5076409;27;45263;-57
2021/09/26 10:46:42;;;;;;;;;11.50;11.25;;;;;22.29;55.21;101062.19;5076982;28;45325;-55
2021/09/26 10:49:12;;;;;;;;;15.75;13.00;;;;;22.30;55.20;101052.50;5092624;27;45590;-57
2021/09/26 10:51:56;;;;;;;;;14.00;13.25;;;;;22.31;55.24;101051.56;5076390;27;47189;-54
2021/09/26 10:54:24;;;;;;;;;12.75;11.75;;;;;22.31;54.96;101057.69;5076417;27;45903;-53
2021/09/26 10:57:12;;;;;;;;;11.25;11.25;;;;;22.32;55.27;101059.38;5076481;27;45310;-56
2021/09/26 10:59:45;;;;;;;;;11.50;10.00;;;;;22.32;55.17;101055.91;5076450;27;45517;-56
2021/09/26 11:02:22;;;;;;;;;16.75;13.50;;;;;22.32;55.31;101047.97;5076583;27;45326;-56
2021/09/26 11:04:49;;;;;;;;;12.25;10.75;;;;;22.31;55.18;101044.47;5076282;27;45811;-56
2021/09/26 11:07:24;;;;;;;;;13.25;11.25;;;;;22.34;55.21;101046.06;5076898;28;45444;-58
2021/09/26 11:10:08;;;;;;;;;12.00;11.75;;;;;22.33;55.28;101039.97;5076622;27;45396;-55
2021/09/26 11:12:49;;;;;;;;;11.00;11.00;;;;;22.35;55.24;101027.53;5076226;27;45405;-55